Time;durP1;ratioP1;P1;durP2;ratioP2;P2;SDS_P1;SDS_P2;PMS_P1;PMS_P2;Temp;Humidity;BMP_temperature;BMP_pressure;BME280_temperature;BME280_humidity;BME280_pressure;Samples;Min_cycle;Max_cycle;Signal;HPM_P1;HPM_P2
2021/01/16 00:01:08;;;;;;;1.25;1.12;;;;;;;-4.90;67.84;97622.16;1619325;88;21193;-67
2021/01/16 00:03:37;;;;;;;0.37;0.37;;;;;;;-4.95;68.56;97618.16;1605618;88;21222;-68
2021/01/16 00:06:08;;;;;;;0.20;0.20;;;;;;;-5.00;68.75;97623.83;1619520;88;21182;-67
2021/01/16 00:08:36;;;;;;;1.50;0.55;;;;;;;-5.06;68.48;97624.06;1605471;88;21210;-67
2021/01/16 00:11:04;;;;;;;0.30;0.30;;;;;;;-5.12;68.42;97626.36;1619632;88;21190;-66
2021/01/16 00:13:35;;;;;;;0.68;0.68;;;;;;;-5.19;68.71;97628.73;1605591;88;21183;-67
2021/01/16 00:16:05;;;;;;;2.00;1.02;;;;;;;-5.24;68.74;97636.09;1619732;88;21182;-67
2021/01/16 00:18:33;;;;;;;1.27;0.90;;;;;;;-5.31;68.55;97638.02;1605714;88;21257;-67
2021/01/16 00:21:02;;;;;;;1.42;0.88;;;;;;;-5.39;67.79;97639.56;1619465;88;21729;-67
2021/01/16 00:23:30;;;;;;;0.68;0.68;;;;;;;-5.48;68.38;97634.80;1605480;88;21246;-65
2021/01/16 00:26:00;;;;;;;0.53;0.53;;;;;;;-5.51;68.10;97645.04;1619340;88;21171;-67
2021/01/16 00:28:32;;;;;;;0.30;0.30;;;;;;;-5.56;67.12;97648.63;1605240;89;21206;-66
2021/01/16 00:31:03;;;;;;;2.40;0.70;;;;;;;-5.60;67.31;97647.87;1619654;88;21194;-67
2021/01/16 00:33:35;;;;;;;1.40;0.82;;;;;;;-5.65;66.96;97655.25;1605295;88;21356;-68
2021/01/16 00:36:26;;;;;;;0.35;0.30;;;;;;;-5.71;67.35;97660.49;1619261;88;21603;-67
2021/01/16 00:38:54;;;;;;;0.60;0.60;;;;;;;-5.75;67.48;97661.03;1640823;86;21590;-67
2021/01/16 00:41:22;;;;;;;0.20;0.20;;;;;;;-5.88;65.14;97661.10;1667522;85;21617;-67
2021/01/16 00:43:50;;;;;;;0.60;0.60;;;;;;;-5.94;65.34;97666.34;1655700;85;21192;-67
2021/01/16 00:46:18;;;;;;;1.42;1.22;;;;;;;-6.05;65.34;97670.91;1667690;84;21179;-67
2021/01/16 00:48:47;;;;;;;1.10;0.47;;;;;;;-6.15;64.87;97668.30;1655937;85;21161;-67
2021/01/16 00:51:15;;;;;;;0.60;0.60;;;;;;;-6.28;65.17;97670.38;1667815;85;21588;-67
2021/01/16 00:53:44;;;;;;;0.53;0.25;;;;;;;-6.38;65.84;97669.81;1656034;85;21188;-70
2021/01/16 00:56:13;;;;;;;1.30;0.60;;;;;;;-6.43;66.63;97665.80;1655998;85;21216;-69
2021/01/16 00:58:45;;;;;;;2.10;1.10;;;;;;;-6.65;66.64;97666.85;1666115;85;21230;-71
2021/01/16 01:01:15;;;;;;;0.47;0.33;;;;;;;-6.65;67.36;97669.84;1654247;85;21656;-71
2021/01/16 01:03:45;;;;;;;1.72;1.35;;;;;;;-6.70;67.63;97676.29;1667907;85;21207;-72
2021/01/16 01:06:13;;;;;;;1.82;0.95;;;;;;;-6.79;67.30;97676.55;1656774;85;21588;-71
2021/01/16 01:08:41;;;;;;;0.53;0.47;;;;;;;-6.88;67.15;97675.10;1668121;84;21194;-71
2021/01/16 01:11:09;;;;;;;0.45;0.40;;;;;;;-6.96;67.60;97677.02;1656225;85;21646;-71
2021/01/16 01:13:37;;;;;;;1.55;1.02;;;;;;;-7.02;67.45;97681.41;1668046;84;21159;-71
2021/01/16 01:16:09;;;;;;;1.27;0.98;;;;;;;-7.03;67.67;97678.06;1656421;85;21192;-71
2021/01/16 01:18:37;;;;;;;0.72;0.57;;;;;;;-7.09;67.18;97671.94;1668090;85;21204;-71
2021/01/16 01:21:06;;;;;;;1.02;0.93;;;;;;;-7.23;67.34;97674.82;1656517;85;21165;-71
2021/01/16 01:23:34;;;;;;;0.30;0.30;;;;;;;-7.35;66.67;97673.89;1668217;84;21237;-71
2021/01/16 01:26:02;;;;;;;1.82;1.72;;;;;;;-7.34;66.91;97672.20;1656417;87;21195;-71
2021/01/16 01:28:31;;;;;;;0.42;0.42;;;;;;;-7.34;66.20;97674.72;1668157;85;21246;-71
2021/01/16 01:30:59;;;;;;;0.10;0.10;;;;;;;-7.34;66.48;97673.45;1656617;85;21479;-69
2021/01/16 01:33:27;;;;;;;0.33;0.33;;;;;;;-7.35;66.52;97664.23;1656427;85;21716;-69
2021/01/16 01:35:55;;;;;;;1.27;0.90;;;;;;;-7.31;67.31;97661.59;1668281;85;21569;-69
2021/01/16 01:38:23;;;;;;;0.95;0.50;;;;;;;-7.33;66.51;97668.38;1656471;85;21255;-68
2021/01/16 01:40:51;;;;;;;0.40;0.40;;;;;;;-7.43;66.34;97669.48;1656541;85;21748;-67
2021/01/16 01:43:19;;;;;;;2.45;0.55;;;;;;;-7.39;66.90;97676.09;1656291;85;21672;-69
2021/01/16 01:45:48;;;;;;;0.30;0.30;;;;;;;-7.40;66.47;97663.55;1656242;85;21705;-68
2021/01/16 01:48:16;;;;;;;0.95;0.95;;;;;;;-7.41;66.41;97671.55;1656197;85;21248;-68
2021/01/16 01:50:44;;;;;;;1.07;0.80;;;;;;;-7.39;67.06;97668.53;1656459;85;21263;-68
2021/01/16 01:53:14;;;;;;;0.75;0.75;;;;;;;-7.35;67.63;97674.31;1656338;87;21256;-71
2021/01/16 01:55:45;;;;;;;1.47;1.20;;;;;;;-7.39;66.21;97682.41;1656300;85;21196;-70
2021/01/16 01:58:17;;;;;;;0.60;0.60;;;;;;;-7.44;66.45;97674.58;1655514;86;21196;-71
2021/01/16 02:00:47;;;;;;;0.35;0.35;;;;;;;-7.44;66.74;97675.41;1656185;85;21203;-71
2021/01/16 02:03:15;;;;;;;3.92;0.65;;;;;;;-7.50;65.78;97683.55;1629827;87;21260;-71
2021/01/16 02:05:46;;;;;;;0.10;0.10;;;;;;;-7.57;66.34;97669.02;1656310;85;21235;-71
2021/01/16 02:08:14;;;;;;;1.27;1.17;;;;;;;-7.65;66.08;97673.44;1656315;85;21196;-71
2021/01/16 02:10:42;;;;;;;0.45;0.42;;;;;;;-7.75;66.08;97670.77;1656136;85;21589;-71
2021/01/16 02:13:10;;;;;;;0.90;0.88;;;;;;;-7.88;65.79;97684.09;1656445;85;21612;-71
2021/01/16 02:15:43;;;;;;;0.90;0.60;;;;;;;-7.90;65.94;97668.20;1656199;85;21621;-70
2021/01/16 02:18:23;;;;;;;0.15;0.15;;;;;;;-7.99;66.26;97672.62;1656353;87;21172;-70
2021/01/16 02:20:55;;;;;;;0.62;0.62;;;;;;;-7.99;66.70;97670.10;1686642;84;21197;-68
2021/01/16 02:23:34;;;;;;;2.83;0.93;;;;;;;-8.09;66.29;97679.56;1686890;84;21153;-69
2021/01/16 02:29:35;;;;;;;0.35;0.35;;;;;;;-8.20;67.12;97684.86;1849846;76;23042;-69
2021/01/16 02:32:06;;;;;;;0.10;0.10;;;;;;;-8.29;67.27;97680.09;1827075;77;21684;-69
2021/01/16 02:34:39;;;;;;;0.82;0.82;;;;;;;-8.28;66.91;97681.69;1827008;77;21585;-69
2021/01/16 02:37:22;;;;;;;0.72;0.72;;;;;;;-8.25;66.98;97680.81;1827012;77;21153;-69
2021/01/16 02:40:29;;;;;;;0.75;0.60;;;;;;;-8.28;67.10;97680.43;1827955;77;21287;-70
2021/01/16 02:43:18;;;;;;;1.15;0.50;;;;;;;-8.26;66.83;97682.50;1696316;84;21160;-68
2021/01/16 02:46:09;;;;;;;0.40;0.40;;;;;;;-8.41;66.44;97690.87;1710661;84;21218;-68
2021/01/16 02:49:06;;;;;;;0.23;0.23;;;;;;;-8.43;66.73;97682.08;1711167;84;21159;-69
2021/01/16 02:51:41;;;;;;;0.62;0.33;;;;;;;-8.40;66.88;97684.94;1710340;82;21197;-69
2021/01/16 02:54:11;;;;;;;0.98;0.98;;;;;;;-8.45;66.19;97688.02;1685065;84;21120;-68
2021/01/16 02:56:40;;;;;;;3.98;0.72;;;;;;;-8.52;66.45;97699.09;1711132;84;21987;-69
2021/01/16 02:59:08;;;;;;;0.50;0.50;;;;;;;-8.61;66.17;97698.85;1711014;82;21248;-69
2021/01/16 03:01:40;;;;;;;0.55;0.55;;;;;;;-8.62;66.41;97692.58;1711158;82;21218;-69
2021/01/16 03:04:09;;;;;;;0.47;0.47;;;;;;;-8.68;66.15;97693.55;1710933;82;21171;-69
2021/01/16 03:06:42;;;;;;;0.28;0.28;;;;;;;-8.74;66.07;97694.92;1710674;84;21175;-68
2021/01/16 03:09:11;;;;;;;0.47;0.47;;;;;;;-8.74;66.05;97692.41;1710469;84;21402;-68
2021/01/16 03:11:39;;;;;;;0.78;0.78;;;;;;;-8.74;66.40;97691.16;1710259;83;21214;-69
2021/01/16 03:14:11;;;;;;;0.10;0.10;;;;;;;-8.73;66.02;97696.17;1710677;84;21813;-69
2021/01/16 03:16:45;;;;;;;0.70;0.70;;;;;;;-8.75;66.15;97697.87;1710428;84;21186;-69
2021/01/16 03:19:17;;;;;;;0.35;0.35;;;;;;;-8.77;65.66;97705.90;1680584;84;21163;-69
2021/01/16 03:21:45;;;;;;;0.88;0.88;;;;;;;-8.75;65.97;97707.94;1681438;85;21699;-69
2021/01/16 03:24:13;;;;;;;0.30;0.30;;;;;;;-8.74;64.93;97715.89;1681241;84;21286;-69
2021/01/16 03:26:41;;;;;;;0.20;0.20;;;;;;;-8.76;65.41;97711.77;1681236;85;21322;-69
2021/01/16 03:29:09;;;;;;;0.10;0.10;;;;;;;-8.73;65.15;97715.05;1681218;84;21160;-69
2021/01/16 03:31:37;;;;;;;0.28;0.28;;;;;;;-8.76;64.95;97702.95;1681376;84;21133;-68
2021/01/16 03:34:05;;;;;;;2.05;1.30;;;;;;;-8.77;65.20;97710.09;1681253;85;21302;-67
2021/01/16 03:36:33;;;;;;;0.55;0.55;;;;;;;-8.81;65.00;97705.98;1681318;84;21553;-67
2021/01/16 03:39:03;;;;;;;0.40;0.30;;;;;;;-8.78;64.94;97717.24;1681152;85;21136;-68
2021/01/16 03:41:32;;;;;;;1.80;0.60;;;;;;;-8.78;64.84;97715.98;1675255;85;21566;-68
2021/01/16 03:44:00;;;;;;;0.37;0.37;;;;;;;-8.76;65.32;97713.02;1666182;86;21149;-68
2021/01/16 03:46:28;;;;;;;0.30;0.30;;;;;;;-8.74;65.24;97712.55;1666241;86;21186;-68
2021/01/16 03:48:57;;;;;;;0.55;0.37;;;;;;;-8.77;64.56;97708.41;1666080;86;21165;-67
2021/01/16 03:51:25;;;;;;;0.33;0.33;;;;;;;-8.76;64.09;97722.66;1666079;85;21121;-67
2021/01/16 03:53:54;;;;;;;2.92;0.68;;;;;;;-8.77;64.32;97724.77;1666238;86;21152;-67
2021/01/16 03:56:22;;;;;;;0.78;0.55;;;;;;;-8.79;63.95;97716.41;1666161;86;21157;-67
2021/01/16 03:58:50;;;;;;;0.70;0.57;;;;;;;-8.78;64.22;97724.80;1666122;85;21572;-67
2021/01/16 04:01:19;;;;;;;0.13;0.13;;;;;;;-8.72;64.29;97722.17;1666481;85;21287;-67
2021/01/16 04:03:47;;;;;;;0.42;0.42;;;;;;;-8.70;64.22;97726.72;1666206;85;21117;-67
2021/01/16 04:06:18;;;;;;;0.20;0.20;;;;;;;-8.69;64.13;97728.39;1666265;85;21156;-66
2021/01/16 04:08:46;;;;;;;0.50;0.50;;;;;;;-8.70;63.69;97728.81;1666158;85;21229;-68
2021/01/16 04:11:14;;;;;;;0.50;0.50;;;;;;;-8.74;63.46;97724.70;1666108;86;21192;-69
2021/01/16 04:13:42;;;;;;;0.20;0.20;;;;;;;-8.76;63.96;97720.15;1666163;85;21641;-68
2021/01/16 04:16:11;;;;;;;1.02;0.35;;;;;;;-8.79;64.29;97715.58;1666295;86;21200;-68
2021/01/16 04:18:39;;;;;;;0.83;0.77;;;;;;;-8.80;64.16;97722.75;1666057;85;21185;-68
2021/01/16 04:21:08;;;;;;;0.37;0.37;;;;;;;-8.77;64.33;97719.73;1666078;86;21609;-68
2021/01/16 04:23:36;;;;;;;0.20;0.20;;;;;;;-8.68;64.62;97716.20;1666094;85;21165;-68
2021/01/16 04:26:04;;;;;;;0.33;0.33;;;;;;;-8.62;64.79;97721.53;1666068;86;21137;-68
2021/01/16 04:28:32;;;;;;;0.82;0.60;;;;;;;-8.55;64.75;97716.75;1666597;86;21535;-68
2021/01/16 04:31:00;;;;;;;0.80;0.80;;;;;;;-8.54;64.36;97720.52;1666199;85;21156;-68
2021/01/16 04:33:29;;;;;;;0.20;0.20;;;;;;;-8.47;64.01;97723.72;1666359;86;21121;-65
2021/01/16 04:35:57;;;;;;;0.55;0.53;;;;;;;-8.40;64.38;97721.45;1666081;85;21156;-66
2021/01/16 04:38:25;;;;;;;0.68;0.68;;;;;;;-8.29;65.21;97724.16;1666332;85;21572;-66
2021/01/16 04:40:53;;;;;;;0.40;0.40;;;;;;;-8.17;65.45;97723.03;1666271;85;21149;-67
2021/01/16 04:43:22;;;;;;;0.20;0.20;;;;;;;-8.08;65.06;97728.27;1665995;85;21160;-69
2021/01/16 04:45:53;;;;;;;0.62;0.62;;;;;;;-8.03;64.91;97726.47;1666152;86;21164;-68
2021/01/16 04:48:23;;;;;;;0.37;0.37;;;;;;;-7.94;65.22;97737.18;1641271;86;21145;-68
2021/01/16 04:50:56;;;;;;;0.33;0.33;;;;;;;-7.91;65.04;97733.75;1666142;86;22465;-68
2021/01/16 04:53:29;;;;;;;0.15;0.15;;;;;;;-7.81;65.56;97741.05;1666101;85;21573;-69
2021/01/16 04:55:59;;;;;;;0.45;0.45;;;;;;;-7.69;66.01;97738.66;1664227;85;21192;-68
2021/01/16 04:58:29;;;;;;;0.53;0.42;;;;;;;-7.58;66.29;97734.61;1666322;86;21196;-69
2021/01/16 05:00:58;;;;;;;0.53;0.53;;;;;;;-7.53;65.75;97732.38;1641375;86;21224;-69
2021/01/16 05:03:36;;;;;;;1.22;1.00;;;;;;;-7.48;65.85;97733.11;1642104;86;21554;-66
2021/01/16 05:06:29;;;;;;;3.90;2.70;;;;;;;-7.52;65.61;97734.05;1666286;85;21165;-66
2021/01/16 05:08:59;;;;;;;2.72;1.35;;;;;;;-7.52;65.84;97732.78;1683441;84;21616;-68
2021/01/16 05:12:08;;;;;;;2.10;1.95;;;;;;;-7.48;66.40;97739.41;1683430;84;21599;-68
2021/01/16 05:14:50;;;;;;;6.80;1.35;;;;;;;-7.49;66.25;97740.27;1647364;86;21586;-65
2021/01/16 05:17:20;;;;;;;1.57;1.47;;;;;;;-7.46;66.48;97746.48;1648627;86;21247;-65
2021/01/16 05:19:51;;;;;;;0.57;0.57;;;;;;;-7.51;66.56;97747.06;1626728;87;21223;-65
2021/01/16 05:22:19;;;;;;;2.40;0.70;;;;;;;-7.44;66.91;97743.94;1626506;88;21633;-68
2021/01/16 05:24:47;;;;;;;1.52;1.42;;;;;;;-7.41;67.08;97744.69;1626605;88;21160;-69
2021/01/16 05:27:20;;;;;;;1.52;1.45;;;;;;;-7.37;66.90;97748.79;1647106;86;21214;-68
2021/01/16 05:29:48;;;;;;;1.17;1.17;;;;;;;-7.34;66.88;97752.48;1627714;86;21634;-69
2021/01/16 05:32:17;;;;;;;0.93;0.75;;;;;;;-7.34;66.79;97758.80;1647461;87;21250;-69
2021/01/16 05:34:47;;;;;;;0.90;0.90;;;;;;;-7.36;66.97;97755.92;1647364;87;21222;-69
2021/01/16 05:37:15;;;;;;;1.75;0.47;;;;;;;-7.29;67.53;97762.47;1647635;87;21604;-68
2021/01/16 05:39:45;;;;;;;0.10;0.10;;;;;;;-7.24;68.21;97762.73;1626868;87;21254;-69
2021/01/16 05:42:14;;;;;;;0.40;0.28;;;;;;;-7.20;68.31;97755.47;1647146;87;21215;-69
2021/01/16 05:44:44;;;;;;;0.90;0.90;;;;;;;-7.15;68.41;97755.78;1625143;87;21202;-69
2021/01/16 05:47:13;;;;;;;1.12;1.12;;;;;;;-7.11;68.26;97763.67;1647462;86;21207;-70
2021/01/16 05:49:42;;;;;;;0.95;0.90;;;;;;;-7.11;67.81;97754.41;1626688;87;21191;-69
2021/01/16 05:52:10;;;;;;;0.78;0.57;;;;;;;-7.13;67.67;97756.16;1626720;87;21216;-69
2021/01/16 05:54:40;;;;;;;0.25;0.25;;;;;;;-7.08;68.01;97758.57;1647185;86;21183;-69
2021/01/16 05:57:13;;;;;;;0.40;0.40;;;;;;;-7.04;67.98;97763.47;1647386;87;21229;-68
2021/01/16 05:59:45;;;;;;;0.30;0.28;;;;;;;-7.06;68.01;97763.13;1626180;87;21163;-68
2021/01/16 06:02:14;;;;;;;0.50;0.50;;;;;;;-7.06;67.95;97765.22;1625540;88;21196;-68
2021/01/16 06:04:47;;;;;;;1.75;0.95;;;;;;;-6.98;68.30;97761.23;1625067;87;21264;-66
2021/01/16 06:07:18;;;;;;;0.85;0.85;;;;;;;-6.98;68.47;97765.84;1624840;87;21164;-66
2021/01/16 06:09:47;;;;;;;3.70;0.78;;;;;;;-6.95;68.46;97772.06;1622970;87;21152;-66
2021/01/16 06:12:18;;;;;;;0.47;0.47;;;;;;;-6.99;68.17;97769.23;1625151;87;21656;-68
2021/01/16 06:14:49;;;;;;;0.95;0.82;;;;;;;-6.91;68.45;97776.17;1645293;87;22300;-69
2021/01/16 06:17:19;;;;;;;1.25;1.15;;;;;;;-6.83;68.65;97775.53;1645263;86;21202;-68
2021/01/16 06:19:49;;;;;;;2.42;0.93;;;;;;;-6.77;68.26;97772.83;1622590;88;21160;-66
2021/01/16 06:22:21;;;;;;;0.40;0.40;;;;;;;-6.74;68.22;97764.36;1645465;87;21199;-65
2021/01/16 06:24:50;;;;;;;4.12;1.52;;;;;;;-6.69;68.53;97771.81;1622926;88;21676;-66
2021/01/16 06:27:28;;;;;;;0.70;0.60;;;;;;;-6.66;68.17;97777.60;1622955;87;21231;-66
2021/01/16 06:30:00;;;;;;;0.47;0.47;;;;;;;-6.60;68.54;97776.16;1645736;86;21248;-66
2021/01/16 06:32:29;;;;;;;0.65;0.50;;;;;;;-6.56;68.63;97788.26;1623324;87;21175;-66
2021/01/16 06:38:10;;;;;;;0.62;0.60;;;;;;;-6.48;68.42;97789.70;1646844;86;21184;-67
2021/01/16 06:40:38;;;;;;;0.80;0.47;;;;;;;-6.42;68.53;97788.25;1646760;86;21181;-66
2021/01/16 06:45:59;;;;;;;0.88;0.88;;;;;;;-6.37;68.54;97788.96;1716959;82;21155;-68
2021/01/16 06:48:32;;;;;;;1.10;0.72;;;;;;;-6.36;68.33;97797.38;1719275;82;21636;-66
2021/01/16 06:51:02;;;;;;;0.75;0.75;;;;;;;-6.38;68.14;97789.83;1721068;82;21291;-66
2021/01/16 06:53:32;;;;;;;1.50;1.40;;;;;;;-6.36;68.32;97799.91;1722470;83;21606;-65
2021/01/16 06:56:10;;;;;;;0.50;0.50;;;;;;;-6.37;68.11;97796.55;1722269;83;21395;-69
2021/01/16 06:58:43;;;;;;;0.65;0.37;;;;;;;-6.38;68.09;97794.88;1721805;83;21173;-71
2021/01/16 07:01:12;;;;;;;0.65;0.53;;;;;;;-6.38;67.98;97793.62;1721529;83;21227;-69
2021/01/16 07:03:49;;;;;;;1.57;1.47;;;;;;;-6.46;67.98;97790.94;1721659;83;21311;-69
2021/01/16 07:06:18;;;;;;;;;;;;;;;-6.40;68.09;97802.12;1724537;83;21535;-69
2021/01/16 07:08:47;;;;;;;0.72;0.72;;;;;;;-6.40;67.61;97797.90;1703036;83;20409;-69
2021/01/16 07:11:16;;;;;;;1.35;1.12;;;;;;;-6.34;67.62;97807.02;1722134;83;21554;-70
2021/01/16 07:13:45;;;;;;;0.88;0.88;;;;;;;-6.33;67.29;97804.43;1721755;83;21331;-69
2021/01/16 07:16:17;;;;;;;1.00;0.93;;;;;;;-6.28;67.12;97792.93;1721854;83;21188;-69
2021/01/16 07:18:47;;;;;;;1.82;1.05;;;;;;;-6.25;66.75;97793.66;1722220;83;21645;-67
2021/01/16 07:21:19;;;;;;;1.00;0.95;;;;;;;-6.26;66.58;97792.44;1721907;83;21229;-66
2021/01/16 07:23:47;;;;;;;1.27;1.17;;;;;;;-6.18;67.40;97794.73;1721723;83;21311;-66
2021/01/16 07:26:15;;;;;;;0.62;0.62;;;;;;;-6.12;66.93;97795.41;1721815;83;21161;-66
2021/01/16 07:28:44;;;;;;;3.95;1.75;;;;;;;-6.02;67.09;97796.78;1721814;83;21614;-65
2021/01/16 07:31:13;;;;;;;1.12;0.62;;;;;;;-5.97;65.68;97805.06;1721769;83;21165;-66
2021/01/16 07:33:44;;;;;;;2.50;1.25;;;;;;;-5.82;65.77;97793.18;1721732;83;21596;-65
2021/01/16 07:36:17;;;;;;;2.85;1.52;;;;;;;-5.71;66.35;97794.11;1720987;83;21613;-65
2021/01/16 07:38:48;;;;;;;4.20;1.10;;;;;;;-5.59;66.08;97791.20;1720036;82;21148;-65
2021/01/16 07:41:39;;;;;;;0.50;0.50;;;;;;;-5.43;65.16;97794.06;1720070;83;21581;-68
2021/01/16 07:44:33;;;;;;;0.75;0.75;;;;;;;-5.23;66.44;97787.09;1607771;89;21187;-68
2021/01/16 07:47:05;;;;;;;0.75;0.47;;;;;;;-5.05;66.87;97788.56;1612788;88;21195;-70
2021/01/16 07:49:38;;;;;;;1.15;1.02;;;;;;;-4.93;66.47;97780.98;1617067;87;21647;-69
2021/01/16 07:52:07;;;;;;;1.65;0.72;;;;;;;-4.80;66.96;97781.80;1613304;89;21259;-70
2021/01/16 07:54:40;;;;;;;0.35;0.35;;;;;;;-4.68;66.45;97781.80;1613613;89;21599;-70
2021/01/16 07:57:12;;;;;;;2.65;1.27;;;;;;;-4.62;65.82;97779.48;1613577;89;21198;-70
2021/01/16 07:59:45;;;;;;;1.32;1.02;;;;;;;-4.49;66.13;97786.60;1613548;88;21212;-69
2021/01/16 08:02:28;;;;;;;1.30;1.20;;;;;;;-4.45;65.34;97785.61;1592450;88;21179;-70
2021/01/16 08:05:25;;;;;;;1.92;1.75;;;;;;;-4.46;65.81;97780.14;1613371;89;21235;-69
2021/01/16 08:08:53;;;;;;;0.30;0.30;;;;;;;-4.69;66.35;97781.84;1613599;88;21186;-69
2021/01/16 08:11:54;;;;;;;1.05;0.70;;;;;;;-4.49;66.80;97781.53;1595810;90;21214;-72
2021/01/16 08:14:23;;;;;;;0.95;0.95;;;;;;;-4.37;65.96;97777.73;1668132;86;21169;-65
2021/01/16 08:16:59;;;;;;;0.57;0.57;;;;;;;-4.25;70.76;97778.55;1667974;85;21593;-64
2021/01/16 08:19:48;;;;;;;0.82;0.40;;;;;;;-4.05;71.89;97779.08;1668245;86;21163;-65
2021/01/16 08:22:19;;;;;;;1.00;0.75;;;;;;;-3.71;70.09;97784.94;1668169;85;21125;-65
2021/01/16 08:25:03;;;;;;;1.00;0.80;;;;;;;-3.43;69.62;97776.19;1668002;86;21703;-65
2021/01/16 08:27:35;;;;;;;0.95;0.70;;;;;;;-3.19;69.19;97788.30;1668050;86;21144;-65
2021/01/16 08:30:14;;;;;;;0.60;0.40;;;;;;;-3.10;67.95;97780.75;1667977;85;21576;-66
2021/01/16 08:32:59;;;;;;;1.50;1.07;;;;;;;-2.90;67.27;97780.75;1668105;86;21683;-66
2021/01/16 08:35:41;;;;;;;1.98;0.75;;;;;;;-2.83;65.41;97783.84;1668137;85;21200;-65
2021/01/16 08:38:21;;;;;;;0.80;0.80;;;;;;;-2.99;64.00;97786.21;1664486;85;21619;-65
2021/01/16 08:41:04;;;;;;;0.80;0.68;;;;;;;-3.05;62.53;97778.86;1667850;86;21196;-65
2021/01/16 08:43:46;;;;;;;1.75;0.47;;;;;;;-3.11;62.62;97780.39;1667901;85;21187;-65
2021/01/16 08:46:33;;;;;;;2.02;1.82;;;;;;;-3.11;61.51;97785.48;1667909;86;21153;-65
2021/01/16 08:49:09;;;;;;;2.00;1.45;;;;;;;-2.86;63.24;97777.19;1668024;86;21177;-65
2021/01/16 08:51:44;;;;;;;1.65;1.55;;;;;;;-2.71;63.32;97763.83;1668255;86;21791;-65
2021/01/16 08:54:23;;;;;;;7.85;6.75;;;;;;;-2.52;62.91;97779.93;1667851;86;21578;-64
2021/01/16 08:57:00;;;;;;;6.78;3.98;;;;;;;-2.35;63.09;97772.84;1668112;85;21306;-66
2021/01/16 08:59:32;;;;;;;14.07;9.08;;;;;;;-2.47;60.32;97774.65;1666847;86;21705;-65
2021/01/16 09:02:15;;;;;;;9.98;6.08;;;;;;;-2.11;64.45;97764.11;1668215;85;21330;-66
2021/01/16 09:04:45;;;;;;;5.67;3.22;;;;;;;-1.92;63.41;97777.64;1668104;85;21281;-66
2021/01/16 09:07:40;;;;;;;1.67;1.57;;;;;;;-1.67;63.28;97770.94;1667905;86;21164;-66
2021/01/16 09:10:12;;;;;;;2.47;1.20;;;;;;;-1.44;61.61;97770.66;1701072;84;21198;-66
2021/01/16 09:12:40;;;;;;;5.45;2.58;;;;;;;-1.18;61.67;97774.52;1700782;84;21167;-66
2021/01/16 09:15:26;;;;;;;3.62;1.57;;;;;;;-0.88;58.68;97762.41;1693220;84;21158;-66
2021/01/16 09:18:10;;;;;;;3.00;1.98;;;;;;;-0.58;61.70;97769.31;1688185;83;21188;-66
2021/01/16 09:20:43;;;;;;;2.35;1.87;;;;;;;-0.52;59.95;97764.37;1693517;83;21719;-67
2021/01/16 09:23:37;;;;;;;2.30;1.55;;;;;;;-0.36;58.57;97764.39;1717233;84;21235;-66
2021/01/16 09:26:16;;;;;;;2.85;1.52;;;;;;;-0.30;61.22;97767.44;1666974;85;21198;-66
2021/01/16 09:28:50;;;;;;;5.42;2.17;;;;;;;-0.50;59.27;97767.20;1720837;83;21184;-67
2021/01/16 09:31:42;;;;;;;0.55;0.42;;;;;;;-1.40;52.60;97775.16;1703388;84;21734;-71
2021/01/16 09:34:14;;;;;;;1.20;1.10;;;;;;;-1.55;56.10;97769.08;1702937;84;21230;-66
2021/01/16 09:36:57;;;;;;;1.92;1.77;;;;;;;-1.66;55.79;97771.32;1702734;84;21337;-69
2021/01/16 09:39:28;;;;;;;0.60;0.53;;;;;;;-2.05;53.08;97748.55;1702218;84;21579;-72
2021/01/16 09:42:03;;;;;;;19.77;11.12;;;;;;;-1.61;57.22;97768.12;1702831;84;21184;-69
2021/01/16 09:44:47;;;;;;;18.82;11.25;;;;;;;-1.25;58.79;97762.16;1699706;84;21303;-68
2021/01/16 09:47:33;;;;;;;3.05;2.12;;;;;;;-0.90;56.34;97690.30;1693015;84;21176;-67
2021/01/16 09:50:11;;;;;;;2.33;1.12;;;;;;;-0.50;57.77;97756.17;1711936;83;21210;-67
2021/01/16 09:52:52;;;;;;;4.30;2.02;;;;;;;-0.28;54.41;97762.27;1708486;83;21146;-68
2021/01/16 09:55:31;;;;;;;1.10;1.05;;;;;;;-0.38;56.02;97763.19;1717225;83;21202;-68
2021/01/16 09:57:56;;;;;;;1.65;1.47;;;;;;;-0.61;56.05;97750.36;1714467;84;21148;-68
2021/01/16 10:00:31;;;;;;;1.52;1.12;;;;;;;-0.88;53.65;97756.86;1724156;82;21588;-67
2021/01/16 10:03:07;;;;;;;2.12;1.12;;;;;;;-1.08;54.84;97758.30;1754334;80;21562;-70
2021/01/16 10:05:45;;;;;;;2.00;0.93;;;;;;;-1.28;54.10;97763.55;1753264;82;21223;-69
2021/01/16 10:08:49;;;;;;;2.87;1.15;;;;;;;-1.66;53.58;97761.14;1743272;80;21659;-69
2021/01/16 10:11:42;;;;;;;1.07;0.62;;;;;;;-1.96;53.98;97772.31;1657259;86;21185;-68
2021/01/16 10:17:12;;;;;;;1.75;1.65;;;;;;;-2.07;55.88;97771.16;1751105;80;21160;-68
2021/01/16 10:19:42;;;;;;;1.95;1.30;;;;;;;-1.96;53.86;97775.30;1709965;82;21483;-65
2021/01/16 10:22:11;;;;;;;2.85;1.40;;;;;;;-1.77;54.46;97768.91;1739806;81;21145;-65
2021/01/16 10:24:44;;;;;;;3.10;1.40;;;;;;;-1.60;55.63;97760.03;1739978;81;21154;-66
2021/01/16 10:27:18;;;;;;;2.00;1.37;;;;;;;-1.52;55.25;97746.02;1740027;81;21112;-66
2021/01/16 10:29:47;;;;;;;0.60;0.60;;;;;;;-1.42;51.77;97753.22;1730978;81;21111;-66
2021/01/16 10:35:25;;;;;;;1.22;1.00;;;;;;;-1.13;52.82;97738.63;1719630;83;21216;-66
2021/01/16 10:37:57;;;;;;;3.12;0.80;;;;;;;-1.13;51.65;97752.16;1673335;85;21140;-67
2021/01/16 10:40:29;;;;;;;2.05;1.37;;;;;;;-0.95;53.51;97750.44;1673225;86;21608;-70
2021/01/16 10:42:59;;;;;;;1.37;1.15;;;;;;;-0.95;53.51;97750.44;1673262;86;21208;-67
2021/01/16 10:45:32;;;;;;;1.55;1.27;;;;;;;-0.79;51.45;97744.94;1648841;86;21155;-69
2021/01/16 10:48:18;;;;;;;2.75;1.67;;;;;;;-0.78;51.46;97745.77;1676646;85;21144;-71
2021/01/16 10:50:48;;;;;;;3.52;1.98;;;;;;;-0.78;51.46;97745.77;1685445;84;21175;-71
2021/01/16 10:53:18;;;;;;;5.37;1.52;;;;;;;-0.51;48.22;97729.83;1647380;87;21181;-71
2021/01/16 10:55:57;;;;;;;4.50;2.67;;;;;;;-0.33;44.32;97715.75;1647569;86;21130;-71
2021/01/16 10:58:28;;;;;;;4.28;1.85;;;;;;;0.28;45.74;97734.48;1685387;84;21188;-70
2021/01/16 11:00:59;;;;;;;3.83;1.90;;;;;;;0.90;50.69;97732.65;1685462;84;21198;-71
2021/01/16 11:03:33;;;;;;;4.33;1.40;;;;;;;1.67;48.06;97722.92;1682352;84;21212;-72
2021/01/16 11:06:13;;;;;;;5.30;1.40;;;;;;;2.37;50.00;97721.87;1673181;85;21254;-71
2021/01/16 11:08:41;;;;;;;2.33;1.45;;;;;;;2.93;45.94;97720.39;1629037;87;21222;-69
2021/01/16 11:11:47;;;;;;;2.17;1.77;;;;;;;3.49;44.86;97708.44;1673297;86;21202;-68
2021/01/16 11:14:19;;;;;;;4.45;3.00;;;;;;;4.03;48.57;97717.91;1642943;86;21216;-68
2021/01/16 11:16:49;;;;;;;4.83;2.05;;;;;;;4.71;49.84;97714.68;1642851;85;21235;-68
2021/01/16 11:19:21;;;;;;;4.55;1.85;;;;;;;5.16;42.68;97714.33;1671118;86;21160;-68
2021/01/16 11:21:57;;;;;;;4.42;2.08;;;;;;;5.69;40.34;97706.37;1666142;84;21215;-69
2021/01/16 11:25:03;;;;;;;4.08;2.22;;;;;;;6.07;39.14;97701.64;1670814;85;21206;-68
2021/01/16 11:28:06;;;;;;;3.33;2.20;;;;;;;6.73;42.57;97705.41;1643218;87;21180;-69
2021/01/16 11:30:41;;;;;;;5.72;2.52;;;;;;;7.34;35.96;97705.03;1631155;88;21240;-69
2021/01/16 11:33:26;;;;;;;4.22;2.20;;;;;;;7.95;40.67;97707.08;1631336;88;21592;-70
2021/01/16 11:36:15;;;;;;;5.53;2.60;;;;;;;8.36;38.74;97694.47;1631435;88;21203;-69
2021/01/16 11:38:49;;;;;;;3.90;2.22;;;;;;;8.60;37.77;97696.66;1631195;88;21460;-69
2021/01/16 11:41:54;;;;;;;4.25;2.10;;;;;;;8.42;31.67;97697.79;1615251;87;21248;-71
2021/01/16 11:44:22;;;;;;;4.65;2.35;;;;;;;8.55;34.48;97691.87;1634053;86;21152;-69
2021/01/16 11:46:53;;;;;;;5.05;3.05;;;;;;;8.42;32.59;97684.37;1633595;86;21188;-69
2021/01/16 11:49:23;;;;;;;5.22;2.62;;;;;;;8.65;34.63;97681.03;1633703;86;21168;-70
2021/01/16 11:51:53;;;;;;;3.95;2.58;;;;;;;8.95;30.52;97669.67;1634140;86;21251;-70
2021/01/16 11:54:28;;;;;;;8.53;3.00;;;;;;;9.14;31.87;97678.72;1633784;86;21215;-70
2021/01/16 11:56:57;;;;;;;10.40;3.17;;;;;;;8.80;29.21;97666.70;1633635;86;21211;-66
2021/01/16 11:59:26;;;;;;;5.72;2.92;;;;;;;9.16;24.48;97667.72;1633544;86;21160;-64
2021/01/16 12:01:56;;;;;;;6.05;3.12;;;;;;;7.56;26.06;97673.84;1633636;86;21160;-70
2021/01/16 12:04:26;;;;;;;4.92;3.00;;;;;;;8.46;28.09;97668.10;1622471;87;21688;-68
2021/01/16 12:06:58;;;;;;;6.28;2.70;;;;;;;7.77;25.23;97676.36;1633745;86;21613;-69
2021/01/16 12:09:28;;;;;;;6.40;2.90;;;;;;;8.29;25.84;97666.18;1633584;86;21224;-69
2021/01/16 12:12:00;;;;;;;4.87;2.90;;;;;;;7.83;26.98;97665.01;1633593;86;21815;-69
2021/01/16 12:14:36;;;;;;;4.58;2.27;;;;;;;7.78;29.95;97664.58;1633544;86;21200;-68
2021/01/16 12:17:13;;;;;;;5.10;2.15;;;;;;;8.25;28.54;97672.58;1634005;86;21260;-69
2021/01/16 12:19:42;;;;;;;4.75;2.72;;;;;;;8.58;27.49;97657.48;1633886;86;21189;-69